This is the latest recevied weather packets stored in our database for station/object YO3LAW-13. If no packets are shown the sender has not sent any weather packets the latest 10 day(s).
| Time | Temp. | Humidity | Pressure | Rain* | Wind** | Luminosity | Snow |
|---|---|---|---|---|---|---|---|
| 1778410439 | 19.44° C | 74% | 1005.3 hPa | 0 mm | - | - | - |
| 1778409839 | 19.44° C | 72% | 1005.5 hPa | 0 mm | - | - | - |
| 1778409239 | 19.44° C | 72% | 1005.4 hPa | 0 mm | - | - | - |
| 1778408639 | 20° C | 73% | 1005.4 hPa | 0 mm | - | - | - |
| 1778408039 | 20° C | 68% | 1005.6 hPa | 0 mm | - | - | - |
| 1778407439 | 21.11° C | 67% | 1005.6 hPa | 0 mm | - | - | - |
| 1778406839 | 21.11° C | 67% | 1005.6 hPa | 0 mm | - | - | - |
| 1778406239 | 21.67° C | 65% | 1005.5 hPa | 0 mm | - | - | - |
| 1778405639 | 20° C | 74% | 1005.6 hPa | 0 mm | - | - | - |
| 1778405039 | 19.44° C | 73% | 1005.6 hPa | 0 mm | - | - | - |
| 1778404439 | 18.89° C | 74% | 1005.7 hPa | 0 mm | - | - | - |
| 1778403839 | 18.89° C | 73% | 1005.7 hPa | 0 mm | - | - | - |
| 1778403239 | 18.89° C | 73% | 1005.8 hPa | 0 mm | - | - | - |
| 1778402639 | 18.89° C | 76% | 1005.8 hPa | 0 mm | - | - | - |
| 1778402039 | 18.33° C | 77% | 1005.7 hPa | 0 mm | - | - | - |
| 1778401439 | 18.33° C | 81% | 1005.6 hPa | 0 mm | - | - | - |
| 1778400839 | 18.33° C | 80% | 1005.4 hPa | 0 mm | - | - | - |
| 1778400239 | 17.78° C | 79% | 1005.3 hPa | 0 mm | - | - | - |
| 1778399639 | 17.78° C | 81% | 1005.4 hPa | 0 mm | - | - | - |
| 1778399039 | 17.78° C | 79% | 1005.5 hPa | 0 mm | - | - | - |
| 1778398439 | 17.78° C | 81% | 1005.4 hPa | 0.25 mm | - | - | - |
| 1778397839 | 17.22° C | 83% | 1005.6 hPa | 0.25 mm | - | - | - |
| 1778397239 | 16.67° C | 87% | 1005.7 hPa | 0.51 mm | - | - | - |
| 1778396639 | 16.11° C | 91% | 1005.5 hPa | 0.51 mm | - | - | - |
| 1778396039 | 15.56° C | 91% | 1005.5 hPa | 0.51 mm | - | - | - |
* Rain latest hour (hover to see other rain measurements)
** Current wind speed in m/s (hover to see current wind gust speed)